createdAt,value
2018-01-24T00:00:24.713Z,98301.34
2018-01-24T00:00:56.338Z,98301.34
2018-01-24T00:01:27.965Z,98303.48
2018-01-24T00:01:59.589Z,98303.52
2018-01-24T00:02:31.218Z,98300.95
2018-01-24T00:03:02.843Z,98293.69
2018-01-24T00:03:34.465Z,98298.79
2018-01-24T00:04:06.145Z,98297.09
2018-01-24T00:04:37.777Z,98297.56
2018-01-24T00:05:09.398Z,98295.44
2018-01-24T00:05:41.025Z,98296.72
2018-01-24T00:06:12.645Z,98293.78
2018-01-24T00:06:44.265Z,98293.73
2018-01-24T00:07:15.885Z,98295.02
2018-01-24T00:07:47.510Z,98292.89
2018-01-24T00:08:19.130Z,98288.63
2018-01-24T00:08:50.749Z,98285.69
2018-01-24T00:09:22.434Z,98289.48
2018-01-24T00:09:54.057Z,98287.36
2018-01-24T00:10:25.678Z,98290.80
2018-01-24T00:10:57.301Z,98289.86
2018-01-24T00:11:28.929Z,98287.30
2018-01-24T00:12:00.573Z,98288.58
2018-01-24T00:12:32.198Z,98294.08
2018-01-24T00:13:03.817Z,98297.00
2018-01-24T00:13:35.437Z,98292.32
2018-01-24T00:14:07.058Z,98294.48
2018-01-24T00:14:38.913Z,98297.00
2018-01-24T00:15:10.537Z,98292.75
2018-01-24T00:15:42.157Z,98290.23
2018-01-24T00:16:13.777Z,98295.25
2018-01-24T00:16:45.397Z,98296.95
2018-01-24T00:17:17.018Z,98299.47
2018-01-24T00:17:48.645Z,98296.02
2018-01-24T00:18:20.278Z,98296.02
2018-01-24T00:18:51.938Z,98295.53
2018-01-24T00:19:23.590Z,98304.44
2018-01-24T00:19:55.273Z,98301.06
2018-01-24T00:20:26.898Z,98298.91
2018-01-24T00:20:58.525Z,98301.41
2018-01-24T00:21:30.146Z,98303.97
2018-01-24T00:22:01.774Z,98298.00
2018-01-24T00:22:33.402Z,98294.13
2018-01-24T00:23:05.022Z,98293.28
2018-01-24T00:23:36.653Z,98299.61
2018-01-24T00:24:08.274Z,98296.67
2018-01-24T00:24:39.901Z,98302.63
2018-01-24T00:25:11.593Z,98298.84
2018-01-24T00:25:43.214Z,98292.46
2018-01-24T00:26:14.837Z,98289.06
2018-01-24T00:26:46.466Z,98291.56
2018-01-24T00:27:18.086Z,98295.40
2018-01-24T00:27:49.718Z,98295.67
2018-01-24T00:28:21.339Z,98287.55
2018-01-24T00:28:52.970Z,98290.53
2018-01-24T00:29:24.610Z,98288.02
2018-01-24T00:29:56.237Z,98289.39
2018-01-24T00:30:27.917Z,98292.79
2018-01-24T00:30:59.539Z,98285.98
2018-01-24T00:31:31.156Z,98291.14
2018-01-24T00:32:02.783Z,98287.36
2018-01-24T00:32:34.410Z,98289.92
2018-01-24T00:33:06.038Z,98292.09
2018-01-24T00:33:37.657Z,98294.59
2018-01-24T00:34:09.281Z,98298.05
2018-01-24T00:34:40.910Z,98290.00
2018-01-24T00:35:12.538Z,98296.72
2018-01-24T00:35:44.225Z,98292.52
2018-01-24T00:36:15.850Z,98296.39
2018-01-24T00:36:47.478Z,98291.28
2018-01-24T00:37:19.102Z,98291.70
2018-01-24T00:37:50.734Z,98290.48
2018-01-24T00:38:22.354Z,98294.31
2018-01-24T00:38:53.982Z,98290.52
2018-01-24T00:39:25.610Z,98290.56
2018-01-24T00:39:57.238Z,98299.08
2018-01-24T00:40:28.865Z,98294.87
2018-01-24T00:41:00.578Z,98296.53
2018-01-24T00:41:32.201Z,98289.73
2018-01-24T00:42:03.826Z,98291.04
2018-01-24T00:42:35.446Z,98295.69
2018-01-24T00:43:07.065Z,98288.06
2018-01-24T00:43:38.689Z,98292.75
2018-01-24T00:44:10.310Z,98295.30
2018-01-24T00:44:41.929Z,98295.30
2018-01-24T00:45:13.549Z,98293.59
2018-01-24T00:45:45.170Z,98292.31
2018-01-24T00:46:16.863Z,98299.94
2018-01-24T00:46:48.482Z,98293.59
2018-01-24T00:47:20.105Z,98292.31
2018-01-24T00:47:51.729Z,98295.73
2018-01-24T00:48:23.352Z,98291.04
2018-01-24T00:48:54.974Z,98289.77
2018-01-24T00:49:26.602Z,98289.77
2018-01-24T00:49:58.221Z,98292.78
2018-01-24T00:50:29.845Z,98285.13
2018-01-24T00:51:01.466Z,98283.90
2018-01-24T00:51:33.145Z,98279.64
2018-01-24T00:52:04.775Z,98280.49
2018-01-24T00:52:36.394Z,98272.84
2018-01-24T00:53:08.014Z,98274.11
2018-01-24T00:53:39.638Z,98262.63
2018-01-24T00:54:11.258Z,98277.09
2018-01-24T00:54:42.879Z,98273.69
2018-01-24T00:55:14.506Z,98269.02
2018-01-24T00:55:46.134Z,98271.19
2018-01-24T00:56:17.753Z,98263.11
2018-01-24T00:56:49.378Z,98266.46
2018-01-24T00:57:20.998Z,98266.89
2018-01-24T00:57:52.620Z,98265.19
2018-01-24T00:58:24.242Z,98265.23
2018-01-24T00:58:55.866Z,98269.53
2018-01-24T00:59:27.485Z,98279.32
2018-01-24T00:59:59.106Z,98276.77
2018-01-24T01:00:30.739Z,98272.55
2018-01-24T01:01:02.362Z,98282.30
2018-01-24T01:01:33.981Z,98274.25
2018-01-24T01:02:05.665Z,98280.17
2018-01-24T01:02:37.294Z,98276.38
2018-01-24T01:03:08.918Z,98273.41
2018-01-24T01:03:40.546Z,98279.36
2018-01-24T01:04:12.173Z,98281.95
2018-01-24T01:04:43.801Z,98275.58
2018-01-24T01:05:15.472Z,98284.93
2018-01-24T01:05:47.094Z,98280.30
2018-01-24T01:06:18.721Z,98282.81
2018-01-24T01:06:50.346Z,98277.28
2018-01-24T01:07:22.036Z,98271.74
2018-01-24T01:07:53.658Z,98275.19
2018-01-24T01:08:25.277Z,98275.58
2018-01-24T01:08:56.901Z,98282.38
2018-01-24T01:09:28.530Z,98276.89
2018-01-24T01:10:00.158Z,98271.36
2018-01-24T01:10:31.782Z,98272.64
2018-01-24T01:11:03.410Z,98273.91
2018-01-24T01:11:35.038Z,98277.73
2018-01-24T01:12:06.657Z,98273.88
2018-01-24T01:12:38.338Z,98277.32
2018-01-24T01:13:09.966Z,98271.83
2018-01-24T01:13:41.594Z,98268.43
2018-01-24T01:14:13.214Z,98266.68
2018-01-24T01:14:44.846Z,98265.41
2018-01-24T01:15:16.469Z,98270.09
2018-01-24T01:15:48.089Z,98262.86
2018-01-24T01:16:19.713Z,98267.95
2018-01-24T01:16:51.333Z,98269.23
2018-01-24T01:17:22.961Z,98266.27
2018-01-24T01:17:54.649Z,98263.28
2018-01-24T01:18:26.269Z,98267.53
2018-01-24T01:18:57.898Z,98269.62
2018-01-24T01:19:29.522Z,98267.45
2018-01-24T01:20:01.150Z,98266.17
2018-01-24T01:20:32.773Z,98268.34
2018-01-24T01:21:04.398Z,98267.06
2018-01-24T01:21:36.021Z,98263.66
2018-01-24T01:23:33.293Z,98260.69
2018-01-24T01:24:04.940Z,98253.88
2018-01-24T01:24:36.637Z,98263.23
2018-01-24T01:25:08.284Z,98261.95
2018-01-24T01:25:39.976Z,98261.07
2018-01-24T01:26:11.701Z,98261.92
2018-01-24T01:26:43.424Z,98258.08
2018-01-24T01:27:15.068Z,98260.22
2018-01-24T01:27:46.673Z,98251.33
2018-01-24T01:28:18.313Z,98254.73
2018-01-24T01:28:49.905Z,98252.14
2018-01-24T01:29:21.550Z,98251.66
2018-01-24T01:29:53.141Z,98250.81
2018-01-24T01:30:24.734Z,98254.22
2018-01-24T01:30:56.350Z,98249.92
2018-01-24T01:31:27.969Z,98248.67
2018-01-24T01:31:59.589Z,98258.04
2018-01-24T01:32:31.213Z,98255.86
2018-01-24T01:33:02.834Z,98246.94
2018-01-24T01:33:34.501Z,98249.86
2018-01-24T01:34:06.165Z,98249.40
2018-01-24T01:34:37.786Z,98251.94
2018-01-24T01:35:09.406Z,98240.84
2018-01-24T01:35:41.030Z,98249.81
2018-01-24T01:36:12.658Z,98246.45
2018-01-24T01:36:44.278Z,98251.52
2018-01-24T01:37:15.900Z,98246.83
2018-01-24T01:40:46.802Z,98237.42
2018-01-24T01:41:18.421Z,98233.17
2018-01-24T01:44:41.751Z,98229.30
2018-01-24T01:45:13.579Z,98220.84
2018-01-24T01:45:45.402Z,98208.65
2018-01-24T01:46:17.013Z,98223.39
2018-01-24T01:46:48.610Z,98218.28
2018-01-24T01:47:20.201Z,98217.44
2018-01-24T01:47:51.794Z,98219.14
2018-01-24T01:48:23.390Z,98219.98
2018-01-24T01:48:55.009Z,98216.16
2018-01-24T01:49:26.632Z,98221.73
2018-01-24T01:49:58.302Z,98217.02
2018-01-24T01:50:29.926Z,98214.03
2018-01-24T01:51:01.549Z,98216.16
2018-01-24T01:51:33.217Z,98219.09
2018-01-24T01:52:04.866Z,98217.80
2018-01-24T01:52:36.509Z,98217.00
2018-01-24T01:53:08.162Z,98213.13
2018-01-24T01:53:39.805Z,98213.97
2018-01-24T01:54:11.438Z,98215.64
2018-01-24T01:54:43.085Z,98212.23
2018-01-24T01:55:14.705Z,98215.20
2018-01-24T01:55:46.329Z,98216.06
2018-01-24T01:56:17.950Z,98216.48
2018-01-24T01:56:49.598Z,98218.23
2018-01-24T01:57:21.225Z,98215.26
2018-01-24T01:57:52.846Z,98209.73
2018-01-24T01:58:24.474Z,98211.43
2018-01-24T01:58:56.098Z,98207.17
2018-01-24T01:59:27.785Z,98203.77
2018-01-24T01:59:59.429Z,98208.50
2018-01-24T02:00:31.065Z,98211.05
2018-01-24T02:01:02.706Z,98210.63
2018-01-24T02:01:34.334Z,98209.78
2018-01-24T02:02:05.954Z,98213.59
2018-01-24T02:02:37.578Z,98211.05
2018-01-24T02:03:09.206Z,98208.93
2018-01-24T02:03:40.834Z,98212.33
2018-01-24T02:04:12.453Z,98209.77
2018-01-24T02:04:44.114Z,98209.78
2018-01-24T02:05:15.782Z,98218.66
2018-01-24T02:05:47.450Z,98212.28
2018-01-24T02:06:19.078Z,98210.63
2018-01-24T02:06:50.889Z,98206.80
2018-01-24T02:07:22.536Z,98209.36
2018-01-24T02:07:54.181Z,98211.09
2018-01-24T02:08:25.806Z,98214.08
2018-01-24T02:08:57.429Z,98209.83
2018-01-24T02:09:29.054Z,98211.57
2018-01-24T02:10:00.673Z,98214.08
2018-01-24T02:10:32.293Z,98215.41
2018-01-24T02:11:03.958Z,98221.78
2018-01-24T02:11:35.790Z,98223.86
2018-01-24T02:12:07.418Z,98224.28
2018-01-24T02:12:39.045Z,98227.27
2018-01-24T02:13:10.681Z,98226.84
2018-01-24T02:13:42.302Z,98229.88
2018-01-24T02:14:13.922Z,98229.86
2018-01-24T02:14:45.541Z,98229.88
2018-01-24T02:15:17.170Z,98236.26
2018-01-24T02:15:48.794Z,98230.72
2018-01-24T02:16:20.457Z,98234.13
2018-01-24T02:16:52.078Z,98232.84
2018-01-24T02:17:23.700Z,98232.00
2018-01-24T02:17:55.317Z,98231.15
2018-01-24T02:18:26.942Z,98232.42
2018-01-24T02:18:59.157Z,98232.42
2018-01-24T02:19:30.796Z,98230.72
2018-01-24T02:20:02.445Z,98230.30
2018-01-24T02:20:34.077Z,98232.47
2018-01-24T02:21:05.698Z,98229.02
2018-01-24T02:21:37.368Z,98229.44
2018-01-24T02:22:08.989Z,98230.77
2018-01-24T02:22:40.614Z,98235.83
2018-01-24T02:23:12.233Z,98239.70
2018-01-24T02:23:43.882Z,98229.48
2018-01-24T02:24:15.510Z,98221.83
2018-01-24T02:24:47.157Z,98219.28
2018-01-24T02:25:18.806Z,98226.52
2018-01-24T02:25:50.428Z,98220.61
2018-01-24T02:26:22.063Z,98216.77
2018-01-24T02:26:53.724Z,98214.27
2018-01-24T02:27:25.357Z,98220.61
2018-01-24T02:27:56.978Z,98219.34
2018-01-24T02:28:28.630Z,98216.39
2018-01-24T02:29:00.254Z,98216.82
2018-01-24T02:29:31.912Z,98214.65
2018-01-24T02:30:03.538Z,98215.07
2018-01-24T02:30:35.166Z,98208.22
2018-01-24T02:31:06.794Z,98206.52
2018-01-24T02:31:38.418Z,98209.92
2018-01-24T02:32:10.042Z,98208.66
2018-01-24T02:32:41.671Z,98214.98
2018-01-24T02:33:13.294Z,98216.30
2018-01-24T02:33:44.918Z,98213.33
2018-01-24T02:34:16.598Z,98210.39
2018-01-24T02:34:48.222Z,98212.09
2018-01-24T02:35:19.841Z,98213.80
2018-01-24T02:35:51.466Z,98215.50
2018-01-24T02:36:23.090Z,98212.10
2018-01-24T02:36:54.983Z,98212.14
2018-01-24T02:37:26.808Z,98207.89
2018-01-24T02:37:58.633Z,98213.84
2018-01-24T02:38:30.460Z,98215.55
2018-01-24T02:39:02.285Z,98215.12
2018-01-24T02:39:33.945Z,98208.73
2018-01-24T02:40:05.545Z,98210.83
2018-01-24T02:40:37.145Z,98210.40
2018-01-24T02:41:08.786Z,98213.42
2018-01-24T02:41:40.387Z,98209.17
2018-01-24T02:42:11.986Z,98208.74
2018-01-24T02:43:37.294Z,98210.83
2018-01-24T02:44:08.894Z,98206.99
2018-01-24T02:44:40.493Z,98211.67
2018-01-24T02:45:12.094Z,98215.07
2018-01-24T02:45:43.722Z,98207.84
2018-01-24T02:46:15.563Z,98204.44
2018-01-24T02:46:47.389Z,98209.55
2018-01-24T02:47:19.316Z,98211.72
2018-01-24T02:47:50.930Z,98210.87
2018-01-24T02:48:22.534Z,98218.52
2018-01-24T02:48:54.134Z,98208.28
2018-01-24T02:49:25.734Z,98209.55
2018-01-24T02:49:57.338Z,98212.90
2018-01-24T02:50:28.934Z,98209.93
2018-01-24T02:51:00.578Z,98212.52
2018-01-24T02:51:32.173Z,98209.97
2018-01-24T02:52:03.790Z,98208.64
2018-01-24T02:52:35.427Z,98204.82
2018-01-24T02:53:07.053Z,98210.78
2018-01-24T02:53:38.673Z,98210.35
2018-01-24T02:54:10.297Z,98206.09
2018-01-24T02:54:41.917Z,98203.58
2018-01-24T02:55:13.537Z,98209.08
2018-01-24T02:55:45.163Z,98201.03
2018-01-24T02:56:16.785Z,98209.55
2018-01-24T02:56:48.418Z,98206.98
2018-01-24T02:57:20.047Z,98208.22
2018-01-24T02:57:51.673Z,98212.05
2018-01-24T02:58:23.298Z,98209.92
2018-01-24T02:58:54.921Z,98208.17
2018-01-24T02:59:26.550Z,98211.57
2018-01-24T02:59:58.174Z,98201.36
2018-01-24T03:00:29.798Z,98212.44
2018-01-24T03:01:01.430Z,98213.66
2018-01-24T03:01:33.057Z,98205.19
2018-01-24T03:02:04.686Z,98212.80
2018-01-24T03:02:36.305Z,98215.36
2018-01-24T03:03:07.926Z,98215.30
2018-01-24T03:03:39.549Z,98217.86
2018-01-24T03:04:11.178Z,98223.39
2018-01-24T03:04:42.837Z,98220.83
2018-01-24T03:05:14.457Z,98218.71
2018-01-24T03:05:46.077Z,98211.52
2018-01-24T03:06:17.705Z,98218.33
2018-01-24T03:06:49.330Z,98211.53
2018-01-24T03:07:20.953Z,98211.53
2018-01-24T03:07:52.582Z,98211.95
2018-01-24T03:08:24.205Z,98212.42
2018-01-24T03:08:55.826Z,98215.40
2018-01-24T03:09:27.449Z,98204.73
2018-01-24T03:09:59.109Z,98206.05
2018-01-24T03:10:30.734Z,98205.67
2018-01-24T03:11:02.362Z,98209.06
2018-01-24T03:11:33.986Z,98207.37
2018-01-24T03:12:05.614Z,98204.01
2018-01-24T03:12:37.242Z,98207.84
2018-01-24T03:13:08.870Z,98206.14
2018-01-24T03:13:40.533Z,98209.55
2018-01-24T03:14:12.157Z,98207.38
2018-01-24T03:14:43.825Z,98207.38
2018-01-24T03:15:15.453Z,98206.52
2018-01-24T03:15:47.072Z,98209.49
2018-01-24T03:16:18.697Z,98201.37
2018-01-24T03:16:50.321Z,98207.33
2018-01-24T03:17:21.952Z,98202.69
2018-01-24T03:17:53.635Z,98203.91
2018-01-24T03:18:25.261Z,98206.89
2018-01-24T03:18:56.886Z,98212.00
2018-01-24T03:19:28.513Z,98201.89
2018-01-24T03:20:00.181Z,98202.69
2018-01-24T03:20:31.810Z,98196.31
2018-01-24T03:21:03.433Z,98204.83
2018-01-24T03:21:35.061Z,98195.51
2018-01-24T03:22:06.681Z,98198.52
2018-01-24T03:22:38.301Z,98195.52
2018-01-24T03:23:09.930Z,98196.30
2018-01-24T03:23:41.550Z,98196.69
2018-01-24T03:24:13.173Z,98196.26
2018-01-24T03:24:44.794Z,98196.63
2018-01-24T03:25:16.477Z,98198.76
2018-01-24T03:25:48.097Z,98198.77
2018-01-24T03:26:19.726Z,98200.00
2018-01-24T03:26:51.349Z,98198.75
2018-01-24T03:27:22.996Z,98198.30
2018-01-24T03:27:54.641Z,98188.13
2018-01-24T03:28:26.265Z,98195.79
2018-01-24T03:28:58.685Z,98195.84
2018-01-24T03:29:30.310Z,98195.03
2018-01-24T03:30:01.934Z,98203.11
2018-01-24T03:30:33.560Z,98196.73
2018-01-24T03:31:05.185Z,98196.30
2018-01-24T03:31:36.810Z,98197.20
2018-01-24T03:32:08.434Z,98192.11
2018-01-24T03:32:40.062Z,98195.13
2018-01-24T03:33:11.694Z,98190.48
2018-01-24T03:33:43.323Z,98190.92
2018-01-24T03:34:14.946Z,98199.00
2018-01-24T03:34:46.578Z,98191.77
2018-01-24T03:35:18.234Z,98191.77
2018-01-24T03:35:49.857Z,98194.32
2018-01-24T03:36:21.477Z,98195.55
2018-01-24T03:36:53.098Z,98190.02
2018-01-24T03:37:24.721Z,98190.45
2018-01-24T03:37:56.351Z,98186.67
2018-01-24T03:38:27.982Z,98189.18
2018-01-24T03:38:59.642Z,98189.22
2018-01-24T03:39:31.316Z,98186.20
2018-01-24T03:40:02.946Z,98188.33
2018-01-24T03:40:34.614Z,98183.69
2018-01-24T03:41:06.258Z,98186.63
2018-01-24T03:41:37.882Z,98188.70
2018-01-24T03:42:09.510Z,98189.98
2018-01-24T03:42:41.142Z,98191.69
2018-01-24T03:43:12.766Z,98191.26
2018-01-24T03:43:44.429Z,98197.69
2018-01-24T03:44:16.054Z,98189.60
2018-01-24T03:44:47.682Z,98201.89
2018-01-24T03:45:19.305Z,98196.35
2018-01-24T03:45:50.925Z,98196.35
2018-01-24T03:46:22.549Z,98194.66
2018-01-24T03:46:54.182Z,98198.06
2018-01-24T03:47:25.809Z,98198.44
2018-01-24T03:47:57.429Z,98201.03
2018-01-24T03:48:29.050Z,98206.52
2018-01-24T03:49:00.728Z,98209.07
2018-01-24T03:49:32.370Z,98206.98
2018-01-24T03:50:03.998Z,98213.33
2018-01-24T03:50:35.630Z,98203.16
2018-01-24T03:51:07.258Z,98220.61
2018-01-24T03:51:38.886Z,98213.33
2018-01-24T03:52:10.517Z,98218.44
2018-01-24T03:52:42.142Z,98224.39
2018-01-24T03:53:13.762Z,98223.54
2018-01-24T03:53:45.386Z,98222.69
2018-01-24T03:54:17.010Z,98226.94
2018-01-24T03:54:48.633Z,98223.12
2018-01-24T03:55:20.265Z,98229.53
2018-01-24T03:55:51.885Z,98227.83
2018-01-24T03:56:23.510Z,98221.41
2018-01-24T03:56:55.130Z,98223.97
2018-01-24T03:57:26.753Z,98221.84
2018-01-24T03:57:58.426Z,98225.25
2018-01-24T03:58:30.058Z,98227.38
2018-01-24T03:59:01.681Z,98218.47
2018-01-24T03:59:33.306Z,98214.23
2018-01-24T04:00:04.934Z,98223.58
2018-01-24T04:00:36.553Z,98215.50
2018-01-24T04:01:08.178Z,98217.63
2018-01-24T04:01:39.801Z,98218.86
2018-01-24T04:02:11.426Z,98220.19
2018-01-24T04:02:43.057Z,98227.38
2018-01-24T04:03:14.681Z,98226.56
2018-01-24T04:03:46.314Z,98226.14
2018-01-24T04:04:17.937Z,98223.59
2018-01-24T04:04:49.558Z,98231.23
2018-01-24T04:05:21.186Z,98228.27
2018-01-24T04:05:52.810Z,98229.95
2018-01-24T04:06:24.430Z,98223.53
2018-01-24T04:06:56.058Z,98232.00
2018-01-24T04:07:27.685Z,98222.63
2018-01-24T04:07:59.308Z,98224.30
2018-01-24T04:08:30.936Z,98226.00
2018-01-24T04:09:02.590Z,98223.02
2018-01-24T04:09:34.213Z,98223.02
2018-01-24T04:10:05.837Z,98217.86
2018-01-24T04:10:37.466Z,98219.17
2018-01-24T04:11:09.129Z,98222.59
2018-01-24T04:11:40.750Z,98217.48
2018-01-24T04:12:12.382Z,98214.08
2018-01-24T04:12:44.002Z,98214.08
2018-01-24T04:13:15.629Z,98211.91
2018-01-24T04:13:47.253Z,98211.91
2018-01-24T04:14:18.874Z,98211.09
2018-01-24T04:14:50.497Z,98219.99
2018-01-24T04:15:22.128Z,98220.03
2018-01-24T04:15:53.787Z,98220.45
2018-01-24T04:16:25.409Z,98224.72
2018-01-24T04:16:57.033Z,98222.59
2018-01-24T04:17:28.653Z,98220.89
2018-01-24T04:18:00.273Z,98220.03
2018-01-24T04:18:31.941Z,98219.13
2018-01-24T04:19:03.584Z,98225.48
2018-01-24T04:19:35.209Z,98219.98
2018-01-24T04:20:06.829Z,98224.20
2018-01-24T04:20:38.454Z,98225.09
2018-01-24T04:21:10.079Z,98221.69
2018-01-24T04:21:41.702Z,98228.92
2018-01-24T04:22:13.326Z,98223.01
2018-01-24T04:22:44.954Z,98219.98
2018-01-24T04:23:16.573Z,98228.12
2018-01-24T04:23:48.246Z,98225.09
2018-01-24T04:24:19.912Z,98224.29
2018-01-24T04:24:51.538Z,98221.73
2018-01-24T04:25:23.157Z,98228.91
2018-01-24T04:25:54.782Z,98228.45
2018-01-24T04:26:26.409Z,98227.21
2018-01-24T04:26:58.029Z,98229.30
2018-01-24T04:27:29.649Z,98227.65
2018-01-24T04:28:01.313Z,98224.25
2018-01-24T04:28:32.933Z,98232.33
2018-01-24T04:29:04.562Z,98229.78
2018-01-24T04:29:36.191Z,98229.78
2018-01-24T04:30:07.818Z,98234.88
2018-01-24T04:30:39.437Z,98237.48
2018-01-24T04:31:11.061Z,98231.52
2018-01-24T04:31:42.717Z,98233.22
2018-01-24T04:32:14.341Z,98237.48
2018-01-24T04:32:45.957Z,98234.45
2018-01-24T04:33:17.621Z,98232.80
2018-01-24T04:33:49.241Z,98237.06
2018-01-24T04:34:20.861Z,98232.42
2018-01-24T04:34:52.482Z,98237.11
2018-01-24T04:35:24.166Z,98236.30
2018-01-24T04:35:55.785Z,98235.92
2018-01-24T04:36:27.417Z,98235.06
2018-01-24T04:36:59.037Z,98234.59
2018-01-24T04:37:30.657Z,98233.31
2018-01-24T04:38:02.274Z,98233.70
2018-01-24T04:38:33.902Z,98233.27
2018-01-24T04:39:05.529Z,98234.55
2018-01-24T04:39:37.149Z,98238.33
2018-01-24T04:40:08.818Z,98240.47
2018-01-24T04:40:40.445Z,98232.37
2018-01-24T04:41:12.097Z,98230.63
2018-01-24T04:41:43.734Z,98226.84
2018-01-24T04:42:15.367Z,98228.59
2018-01-24T04:42:47.001Z,98232.00
2018-01-24T04:43:18.626Z,98236.25
2018-01-24T04:43:50.294Z,98224.38
2018-01-24T04:44:21.926Z,98234.17
2018-01-24T04:44:53.570Z,98235.02
2018-01-24T04:45:25.262Z,98237.61
2018-01-24T04:45:56.889Z,98238.05
2018-01-24T04:46:28.510Z,98234.22
2018-01-24T04:47:00.138Z,98239.32
2018-01-24T04:47:31.765Z,98238.89
2018-01-24T04:48:03.389Z,98229.95
2018-01-24T04:48:35.010Z,98242.30
2018-01-24T04:49:06.633Z,98233.80
2018-01-24T04:49:38.298Z,98232.94
2018-01-24T04:50:09.938Z,98237.62
2018-01-24T04:50:41.577Z,98236.30
2018-01-24T04:51:13.222Z,98235.45
2018-01-24T04:51:44.861Z,98237.11
2018-01-24T04:52:16.481Z,98238.00
2018-01-24T04:52:48.101Z,98237.62
2018-01-24T04:53:19.721Z,98235.92
2018-01-24T04:53:51.346Z,98238.05
2018-01-24T04:54:22.969Z,98238.52
2018-01-24T04:54:54.630Z,98236.82
2018-01-24T04:55:26.249Z,98238.09
2018-01-24T04:55:57.873Z,98238.90
2018-01-24T04:56:29.552Z,98237.62
2018-01-24T04:57:01.189Z,98240.18
2018-01-24T04:57:32.833Z,98242.73
2018-01-24T04:58:04.485Z,98234.64
2018-01-24T04:58:36.126Z,98239.33
2018-01-24T04:59:07.778Z,98242.73
2018-01-24T04:59:39.421Z,98240.55
2018-01-24T05:00:11.062Z,98239.70
2018-01-24T05:00:42.706Z,98240.17
2018-01-24T05:01:14.397Z,98236.34
2018-01-24T05:01:46.085Z,98237.20
2018-01-24T05:02:17.721Z,98242.73
2018-01-24T05:02:49.366Z,98239.70
2018-01-24T05:03:20.989Z,98241.02
2018-01-24T05:03:52.638Z,98241.02
2018-01-24T05:04:24.273Z,98244.00
2018-01-24T05:04:55.910Z,98239.33
2018-01-24T05:05:27.537Z,98238.05
2018-01-24T05:05:59.166Z,98241.88
2018-01-24T05:06:30.789Z,98236.77
2018-01-24T05:07:02.436Z,98238.09
2018-01-24T05:07:34.159Z,98234.26
2018-01-24T05:08:05.809Z,98240.17
2018-01-24T05:08:37.466Z,98243.16
2018-01-24T05:09:09.101Z,98241.45
2018-01-24T05:09:40.750Z,98244.85
2018-01-24T05:10:12.437Z,98240.60
2018-01-24T05:10:44.073Z,98241.88
2018-01-24T05:11:15.721Z,98238.95
2018-01-24T05:11:47.370Z,98237.62
2018-01-24T05:12:19.014Z,98241.07
2018-01-24T05:12:50.661Z,98242.78
2018-01-24T05:13:22.305Z,98238.09
2018-01-24T05:13:53.990Z,98240.17
2018-01-24T05:14:25.637Z,98244.42
2018-01-24T05:14:57.295Z,98242.73
2018-01-24T05:15:28.933Z,98235.45
2018-01-24T05:16:00.578Z,98238.80
2018-01-24T05:16:32.212Z,98240.97
2018-01-24T05:17:03.850Z,98241.36
2018-01-24T05:17:35.480Z,98242.20
2018-01-24T05:18:07.101Z,98240.89
2018-01-24T05:18:38.726Z,98241.78
2018-01-24T05:19:10.417Z,98239.70
2018-01-24T05:19:42.062Z,98233.70
2018-01-24T05:20:13.706Z,98241.36
2018-01-24T05:20:48.094Z,98240.92
2018-01-24T05:21:20.373Z,98245.19
2018-01-24T05:21:52.070Z,98234.97
2018-01-24T05:22:23.721Z,98237.57
2018-01-24T05:22:55.365Z,98236.77
2018-01-24T05:23:26.986Z,98239.33
2018-01-24T05:23:58.605Z,98235.92
2018-01-24T05:24:30.294Z,98227.36
2018-01-24T05:25:01.922Z,98228.64
2018-01-24T05:25:33.549Z,98227.31
2018-01-24T05:26:05.170Z,98226.89
2018-01-24T05:26:36.789Z,98223.40
2018-01-24T05:27:08.414Z,98225.94
2018-01-24T05:27:40.042Z,98219.14
2018-01-24T05:28:11.669Z,98228.06
2018-01-24T05:28:43.297Z,98222.11
2018-01-24T05:29:14.922Z,98229.30
2018-01-24T05:29:46.585Z,98227.59
2018-01-24T05:30:18.206Z,98225.47
2018-01-24T05:30:49.834Z,98225.52
2018-01-24T05:31:21.457Z,98223.81
2018-01-24T05:31:53.086Z,98223.81
2018-01-24T05:32:24.713Z,98222.95
2018-01-24T05:32:56.333Z,98222.53
2018-01-24T05:33:27.962Z,98226.32
2018-01-24T05:33:59.589Z,98221.30
2018-01-24T05:34:31.209Z,98224.25
2018-01-24T05:35:02.874Z,98225.91
2018-01-24T05:35:34.498Z,98229.81
2018-01-24T05:36:06.126Z,98232.80
2018-01-24T05:36:37.749Z,98232.37
2018-01-24T05:37:09.370Z,98228.93
2018-01-24T05:37:40.993Z,98234.07
2018-01-24T05:38:12.618Z,98232.80
2018-01-24T05:38:44.237Z,98229.02
2018-01-24T05:39:15.881Z,98231.19
2018-01-24T05:39:47.545Z,98227.37
2018-01-24T05:40:19.219Z,98226.94
2018-01-24T05:40:50.842Z,98226.51
2018-01-24T05:41:22.465Z,98224.38
2018-01-24T05:41:54.094Z,98223.16
2018-01-24T05:42:25.741Z,98228.27
2018-01-24T05:42:57.362Z,98225.80
2018-01-24T05:43:28.986Z,98230.06
2018-01-24T05:44:00.614Z,98226.23
2018-01-24T05:44:32.241Z,98219.86
2018-01-24T05:45:03.889Z,98225.47
2018-01-24T05:45:35.558Z,98222.50
2018-01-24T05:46:07.230Z,98221.61
2018-01-24T05:46:38.856Z,98220.80
2018-01-24T05:47:10.481Z,98217.86
2018-01-24T05:47:42.106Z,98214.46
2018-01-24T05:48:13.729Z,98218.72
2018-01-24T05:48:45.354Z,98214.88
2018-01-24T05:49:16.978Z,98217.48
2018-01-24T05:49:48.609Z,98217.02
2018-01-24T05:50:20.245Z,98217.06
2018-01-24T05:50:51.871Z,98210.67
2018-01-24T05:51:23.541Z,98212.34
2018-01-24T05:51:55.162Z,98208.94
2018-01-24T05:52:26.781Z,98211.91
2018-01-24T05:52:58.402Z,98202.13
2018-01-24T05:53:30.030Z,98210.63
2018-01-24T05:54:01.677Z,98212.33
2018-01-24T05:54:33.306Z,98212.33
2018-01-24T05:55:04.933Z,98202.98
2018-01-24T05:55:36.562Z,98214.42
2018-01-24T05:56:08.233Z,98208.50
2018-01-24T05:56:39.853Z,98201.70
2018-01-24T05:57:11.477Z,98195.27
2018-01-24T05:57:43.101Z,98201.23
2018-01-24T05:58:14.725Z,98197.02
2018-01-24T05:58:46.350Z,98200.38
2018-01-24T05:59:17.974Z,98208.89
2018-01-24T05:59:49.601Z,98197.40
2018-01-24T06:00:21.225Z,98197.36
2018-01-24T06:00:52.885Z,98201.19
2018-01-24T06:01:24.554Z,98198.67
2018-01-24T06:01:56.222Z,98199.10
2018-01-24T06:02:27.843Z,98202.08
2018-01-24T06:02:59.461Z,98205.44
2018-01-24T06:03:31.089Z,98203.31
2018-01-24T06:04:02.718Z,98204.59
2018-01-24T06:04:34.337Z,98201.23
2018-01-24T06:05:05.962Z,98202.04
2018-01-24T06:05:37.585Z,98197.40
2018-01-24T06:06:09.211Z,98204.58
2018-01-24T06:06:40.829Z,98200.33
2018-01-24T06:07:12.493Z,98201.60
2018-01-24T06:07:44.122Z,98206.23
2018-01-24T06:08:15.744Z,98204.58
2018-01-24T06:08:47.370Z,98206.66
2018-01-24T06:09:18.994Z,98208.78
2018-01-24T06:09:50.622Z,98201.98
2018-01-24T06:10:22.246Z,98204.49
2018-01-24T06:10:53.875Z,98210.45
2018-01-24T06:11:25.502Z,98207.89
2018-01-24T06:11:57.177Z,98212.95
2018-01-24T06:12:28.811Z,98211.29
2018-01-24T06:13:00.433Z,98212.14
2018-01-24T06:13:32.053Z,98217.68
2018-01-24T06:14:03.678Z,98214.74
2018-01-24T06:14:35.302Z,98216.83
2018-01-24T06:15:06.925Z,98214.27
2018-01-24T06:15:38.549Z,98204.02
2018-01-24T06:16:10.169Z,98210.81
2018-01-24T06:16:41.793Z,98218.91
2018-01-24T06:17:13.478Z,98219.75
2018-01-24T06:17:45.107Z,98212.95
2018-01-24T06:18:16.738Z,98214.64
2018-01-24T06:18:48.358Z,98209.55
2018-01-24T06:19:19.981Z,98214.61
2018-01-24T06:19:51.606Z,98215.45